createdAt,value
2023-02-03T00:02:12.519Z,97170.00
2023-02-03T00:04:39.046Z,97177.00
2023-02-03T00:07:05.635Z,97174.66
2023-02-03T00:09:32.101Z,97183.28
2023-02-03T00:11:58.560Z,97178.19
2023-02-03T00:14:25.008Z,97188.22
2023-02-03T00:16:51.446Z,97199.38
2023-02-03T00:19:18.137Z,97183.38
2023-02-03T00:21:44.681Z,97187.81
2023-02-03T00:24:11.352Z,97187.91
2023-02-03T00:26:41.062Z,97201.78
2023-02-03T00:29:07.593Z,97198.63
2023-02-03T00:31:34.123Z,97198.94
2023-02-03T00:34:00.670Z,97198.56
2023-02-03T00:36:27.310Z,97199.31
2023-02-03T00:38:53.991Z,97202.03
2023-02-03T00:41:20.695Z,97200.56
2023-02-03T00:43:47.431Z,97196.38
2023-02-03T00:46:14.134Z,97191.41
2023-02-03T00:48:40.656Z,97197.50
2023-02-03T00:51:07.191Z,97194.56
2023-02-03T00:53:33.770Z,97192.44
2023-02-03T00:56:00.242Z,97191.78
2023-02-03T00:58:26.735Z,97185.38
2023-02-03T01:00:54.468Z,97193.16
2023-02-03T01:03:21.021Z,97183.94
2023-02-03T01:05:47.472Z,97186.94
2023-02-03T01:08:15.034Z,97193.31
2023-02-03T01:10:41.527Z,97191.81
2023-02-03T01:13:07.979Z,97184.34
2023-02-03T01:15:34.455Z,97188.22
2023-02-03T01:18:00.958Z,97188.47
2023-02-03T01:20:27.669Z,97183.66
2023-02-03T01:22:54.412Z,97180.31
2023-02-03T01:25:20.903Z,97190.41
2023-02-03T01:27:47.394Z,97189.41
2023-02-03T01:30:14.045Z,97184.16
2023-02-03T01:32:40.551Z,97184.88
2023-02-03T01:35:07.227Z,97177.19
2023-02-03T01:37:33.691Z,97177.66
2023-02-03T01:40:00.142Z,97179.97
2023-02-03T01:42:26.709Z,97179.88
2023-02-03T01:44:53.225Z,97172.59
2023-02-03T01:47:36.832Z,97169.63
2023-02-03T01:50:19.912Z,97158.88
2023-02-03T01:52:47.912Z,97165.16
2023-02-03T01:55:16.470Z,97166.19
2023-02-03T01:57:44.990Z,97169.66
2023-02-03T02:00:11.765Z,97162.16
2023-02-03T02:02:38.509Z,97155.41
2023-02-03T02:05:07.499Z,97150.31
2023-02-03T02:07:34.184Z,97159.66
2023-02-03T02:10:00.713Z,97158.81
2023-02-03T02:12:27.178Z,97159.63
2023-02-03T02:14:53.681Z,97156.53
2023-02-03T02:17:23.110Z,97151.03
2023-02-03T02:19:49.563Z,97151.16
2023-02-03T02:22:19.019Z,97157.94
2023-02-03T02:24:57.903Z,97163.00
2023-02-03T02:27:24.358Z,97148.78
2023-02-03T02:30:09.194Z,97146.50
2023-02-03T02:32:41.948Z,97134.81
2023-02-03T02:35:08.426Z,97143.41
2023-02-03T02:37:50.198Z,97130.34
2023-02-03T02:40:24.491Z,97126.06
2023-02-03T02:42:51.253Z,97123.72
2023-02-03T02:45:19.729Z,97118.66
2023-02-03T02:47:46.198Z,97125.19
2023-02-03T02:50:23.480Z,97119.03
2023-02-03T02:52:50.150Z,97120.41
2023-02-03T02:55:17.448Z,97104.88
2023-02-03T02:57:43.928Z,97102.97
2023-02-03T03:00:10.661Z,97108.69
2023-02-03T03:02:37.145Z,97103.50
2023-02-03T03:05:07.647Z,97102.44
2023-02-03T03:07:35.551Z,97094.59
2023-02-03T03:10:02.911Z,97088.63
2023-02-03T03:12:34.172Z,97088.41
2023-02-03T03:15:01.489Z,97088.31
2023-02-03T03:17:28.872Z,97092.50
2023-02-03T03:19:56.237Z,97091.50
2023-02-03T03:22:24.757Z,97093.41
2023-02-03T03:24:52.956Z,97103.72
2023-02-03T03:27:19.419Z,97102.81
2023-02-03T03:29:50.017Z,97110.50
2023-02-03T03:32:16.488Z,97114.75
2023-02-03T03:34:43.016Z,97122.22
2023-02-03T03:37:15.052Z,97127.19
2023-02-03T03:39:48.619Z,97133.81
2023-02-03T03:42:27.462Z,97108.47
2023-02-03T03:44:53.890Z,97109.97
2023-02-03T03:47:29.452Z,97106.59
2023-02-03T03:49:55.931Z,97103.31
2023-02-03T03:55:44.613Z,97087.34
2023-02-03T03:58:12.040Z,97085.56
2023-02-03T04:00:39.062Z,97091.28
2023-02-03T04:03:06.712Z,97082.47
2023-02-03T04:05:33.454Z,97079.13
2023-02-03T04:08:00.914Z,97082.63
2023-02-03T04:10:37.173Z,97076.72
2023-02-03T04:13:04.204Z,97070.84
2023-02-03T04:15:30.777Z,97069.19
2023-02-03T04:17:57.356Z,97068.50
2023-02-03T04:20:24.370Z,97062.59
2023-02-03T04:22:50.944Z,97041.41
2023-02-03T04:25:17.512Z,97032.84
2023-02-03T04:27:44.008Z,97031.78
2023-02-03T04:30:10.833Z,97029.97
2023-02-03T04:32:37.285Z,97036.56
2023-02-03T04:35:04.194Z,97034.66
2023-02-03T04:37:30.689Z,97033.78
2023-02-03T04:39:57.157Z,97035.38
2023-02-03T04:42:23.652Z,97027.59
2023-02-03T04:44:50.246Z,97030.75
2023-02-03T04:47:16.749Z,97019.59
2023-02-03T04:49:43.188Z,97032.09
2023-02-03T04:52:09.696Z,97021.00
2023-02-03T04:54:36.177Z,97030.97
2023-02-03T04:57:02.641Z,97024.00
2023-02-03T04:59:29.176Z,97023.09
2023-02-03T05:01:55.685Z,97015.38
2023-02-03T05:04:22.201Z,97006.03
2023-02-03T05:06:48.639Z,97001.69
2023-02-03T05:09:15.115Z,97002.47
2023-02-03T05:11:41.612Z,97001.50
2023-02-03T05:14:08.171Z,97001.44
2023-02-03T05:16:34.660Z,96999.69
2023-02-03T05:19:01.215Z,96993.63
2023-02-03T05:21:27.700Z,96982.56
2023-02-03T05:23:54.209Z,96993.38
2023-02-03T05:26:20.677Z,96981.38
2023-02-03T05:28:47.129Z,96982.75
2023-02-03T05:31:13.735Z,96973.50
2023-02-03T05:33:40.216Z,96968.53
2023-02-03T05:36:06.862Z,96971.06
2023-02-03T05:38:33.298Z,96965.09
2023-02-03T05:41:18.488Z,96961.72
2023-02-03T05:43:44.963Z,96970.13
2023-02-03T05:46:11.457Z,96954.94
2023-02-03T05:48:37.935Z,96950.66
2023-02-03T05:51:04.540Z,96952.91
2023-02-03T05:53:30.994Z,96950.34
2023-02-03T05:55:57.448Z,96948.72
2023-02-03T05:58:23.911Z,96944.50
2023-02-03T06:00:50.403Z,96935.31
2023-02-03T06:03:16.899Z,96929.25
2023-02-03T06:05:44.394Z,96917.59
2023-02-03T06:08:11.047Z,96932.84
2023-02-03T06:10:37.501Z,96929.31
2023-02-03T06:13:10.985Z,96926.72
2023-02-03T06:15:37.525Z,96929.94
2023-02-03T06:18:03.999Z,96932.38
2023-02-03T06:20:30.750Z,96935.59
2023-02-03T06:22:57.241Z,96933.59
2023-02-03T06:25:24.369Z,96930.72
2023-02-03T06:27:51.100Z,96924.66
2023-02-03T06:30:17.774Z,96923.69
2023-02-03T06:32:44.256Z,96923.50
2023-02-03T06:35:10.853Z,96923.28
2023-02-03T06:37:37.684Z,96927.19
2023-02-03T06:40:04.491Z,96924.44
2023-02-03T06:42:31.095Z,96915.72
2023-02-03T06:44:57.597Z,96916.31
2023-02-03T06:47:24.128Z,96901.69
2023-02-03T06:49:51.843Z,96902.22
2023-02-03T06:52:18.470Z,96894.50
2023-02-03T06:54:44.968Z,96901.09
2023-02-03T06:57:11.489Z,96895.03
2023-02-03T06:59:37.957Z,96893.91
2023-02-03T07:02:04.523Z,96890.97
2023-02-03T07:04:30.987Z,96884.03
2023-02-03T07:06:57.696Z,96879.69
2023-02-03T07:09:24.206Z,96875.44
2023-02-03T07:11:50.683Z,96878.56
2023-02-03T07:14:17.259Z,96866.81
2023-02-03T07:16:43.685Z,96861.88
2023-02-03T07:19:10.129Z,96852.75
2023-02-03T07:21:36.555Z,96855.22
2023-02-03T07:24:03.208Z,96853.41
2023-02-03T07:26:29.658Z,96847.66
2023-02-03T07:28:56.119Z,96857.84
2023-02-03T07:31:22.675Z,96850.13
2023-02-03T07:33:49.279Z,96858.44
2023-02-03T07:36:15.784Z,96865.09
2023-02-03T07:38:42.270Z,96855.59
2023-02-03T07:41:08.781Z,96858.06
2023-02-03T07:43:35.266Z,96859.72
2023-02-03T07:46:02.232Z,96849.44
2023-02-03T07:48:28.746Z,96842.63
2023-02-03T07:50:55.246Z,96853.41
2023-02-03T07:53:21.786Z,96849.59
2023-02-03T07:55:48.332Z,96845.25
2023-02-03T07:58:15.133Z,96834.00
2023-02-03T08:00:41.637Z,96824.72
2023-02-03T08:06:42.969Z,96807.41
2023-02-03T08:09:09.651Z,96808.00
2023-02-03T08:11:36.153Z,96797.50
2023-02-03T08:14:02.658Z,96782.03
2023-02-03T08:16:29.232Z,96780.97
2023-02-03T08:18:55.813Z,96772.78
2023-02-03T08:21:22.302Z,96770.22
2023-02-03T08:23:48.840Z,96765.72
2023-02-03T08:26:15.374Z,96756.97
2023-02-03T08:28:41.829Z,96745.63
2023-02-03T08:31:11.824Z,96746.06
2023-02-03T08:33:38.621Z,96733.94
2023-02-03T08:36:05.855Z,96737.31
2023-02-03T08:38:32.539Z,96729.63
2023-02-03T08:40:59.079Z,96730.25
2023-02-03T08:43:25.580Z,96744.47
2023-02-03T08:45:52.113Z,96736.75
2023-02-03T08:48:18.798Z,96729.09
2023-02-03T08:54:13.515Z,96728.16
2023-02-03T08:56:40.101Z,96720.88
2023-02-03T08:59:06.673Z,96709.97
2023-02-03T09:01:33.156Z,96703.94
2023-02-03T09:04:02.056Z,96707.66
2023-02-03T09:06:30.096Z,96709.03
2023-02-03T09:08:56.863Z,96708.31
2023-02-03T09:11:23.335Z,96704.28
2023-02-03T09:13:50.273Z,96695.72
2023-02-03T09:16:17.443Z,96689.00
2023-02-03T09:18:44.377Z,96695.38
2023-02-03T09:21:20.814Z,96694.09
2023-02-03T09:24:00.851Z,96687.53
2023-02-03T09:26:27.321Z,96686.22
2023-02-03T09:28:53.879Z,96676.31
2023-02-03T09:31:20.427Z,96670.63
2023-02-03T09:33:46.905Z,96662.06
2023-02-03T09:36:13.367Z,96662.06
2023-02-03T09:38:39.878Z,96661.25
2023-02-03T09:41:25.148Z,96663.06
2023-02-03T09:44:03.564Z,96655.16
2023-02-03T09:46:30.552Z,96644.88
2023-02-03T09:48:58.437Z,96642.63
2023-02-03T09:51:26.680Z,96642.56
2023-02-03T09:54:06.790Z,96642.84
2023-02-03T09:56:36.524Z,96630.47
2023-02-03T09:59:03.298Z,96641.50
2023-02-03T10:01:33.118Z,96631.19
2023-02-03T10:04:04.637Z,96630.69
2023-02-03T10:06:37.728Z,96623.38
2023-02-03T10:09:24.450Z,96632.69
2023-02-03T10:12:09.835Z,96615.06
2023-02-03T10:14:36.273Z,96608.59
2023-02-03T10:17:21.576Z,96604.41
2023-02-03T10:19:48.135Z,96596.22
2023-02-03T10:22:18.968Z,96596.75
2023-02-03T10:24:56.561Z,96583.91
2023-02-03T10:27:23.547Z,96576.09
2023-02-03T10:30:13.401Z,96569.16
2023-02-03T10:32:39.871Z,96561.22
2023-02-03T10:35:11.359Z,96547.00
2023-02-03T10:37:39.415Z,96541.81
2023-02-03T10:40:05.993Z,96538.38
2023-02-03T10:42:52.414Z,96532.16
2023-02-03T10:45:19.706Z,96528.69
2023-02-03T10:47:47.408Z,96509.13
2023-02-03T10:50:21.070Z,96501.34
2023-02-03T10:52:47.580Z,96506.19
2023-02-03T10:55:26.243Z,96484.66
2023-02-03T10:57:53.166Z,96465.78
2023-02-03T11:00:24.218Z,96466.72
2023-02-03T11:03:09.237Z,96464.78
2023-02-03T11:05:35.747Z,96220.50
2023-02-03T11:08:02.307Z,96458.75
2023-02-03T11:10:29.042Z,96450.69
2023-02-03T11:13:11.755Z,96456.34
2023-02-03T11:15:38.549Z,96445.56
2023-02-03T11:18:05.048Z,96444.00
2023-02-03T11:20:35.552Z,96426.88
2023-02-03T11:23:02.422Z,96428.81
2023-02-03T11:25:29.880Z,96402.47
2023-02-03T11:27:56.416Z,96412.41
2023-02-03T11:30:24.313Z,96409.84
2023-02-03T11:32:50.833Z,96390.13
2023-02-03T11:35:24.556Z,96388.84
2023-02-03T11:37:54.919Z,96383.63
2023-02-03T11:40:21.377Z,96375.03
2023-02-03T11:42:50.990Z,96367.91
2023-02-03T11:45:17.479Z,96364.00
2023-02-03T11:47:56.269Z,96360.53
2023-02-03T11:50:26.440Z,96351.13
2023-02-03T11:52:59.233Z,96333.56
2023-02-03T11:55:33.013Z,96336.31
2023-02-03T11:58:00.354Z,96324.78
2023-02-03T12:00:56.263Z,96320.38
2023-02-03T12:03:25.759Z,96316.38
2023-02-03T12:05:52.242Z,96305.44
2023-02-03T12:08:18.701Z,96300.44
2023-02-03T12:10:52.310Z,96288.16
2023-02-03T12:13:40.512Z,96284.06
2023-02-03T12:16:27.703Z,96269.22
2023-02-03T12:18:58.084Z,96269.34
2023-02-03T12:21:43.626Z,96260.84
2023-02-03T12:24:28.928Z,96258.88
2023-02-03T12:26:58.095Z,96240.78
2023-02-03T12:29:37.093Z,96234.84
2023-02-03T12:32:03.671Z,96222.19
2023-02-03T12:34:34.396Z,96220.53
2023-02-03T12:37:05.764Z,96215.53
2023-02-03T12:39:35.335Z,96204.00
2023-02-03T12:42:03.234Z,96192.84
2023-02-03T12:44:31.535Z,96192.53
2023-02-03T12:47:06.302Z,96183.50
2023-02-03T12:49:52.794Z,96175.34
2023-02-03T12:52:38.078Z,96178.72
2023-02-03T12:55:27.611Z,96175.69
2023-02-03T12:58:03.394Z,96161.97
2023-02-03T13:00:32.889Z,96170.22
2023-02-03T13:03:06.443Z,96158.16
2023-02-03T13:05:43.850Z,96149.94
2023-02-03T13:08:30.592Z,96149.94
2023-02-03T13:11:17.299Z,96142.38
2023-02-03T13:13:45.445Z,96138.22
2023-02-03T13:16:11.896Z,96132.84
2023-02-03T13:18:39.039Z,96121.81
2023-02-03T13:21:05.579Z,96119.72
2023-02-03T13:23:32.067Z,96120.03
2023-02-03T13:26:04.523Z,96110.75
2023-02-03T13:28:50.850Z,96097.75
2023-02-03T13:31:36.712Z,96095.50
2023-02-03T13:34:15.138Z,96087.13
2023-02-03T13:36:47.688Z,96075.28
2023-02-03T13:39:23.276Z,96083.09
2023-02-03T13:41:52.015Z,96069.28
2023-02-03T13:44:19.696Z,96075.31
2023-02-03T13:46:49.642Z,96061.16
2023-02-03T13:49:23.793Z,96059.84
2023-02-03T13:51:50.282Z,96058.97
2023-02-03T13:54:26.268Z,96049.31
2023-02-03T13:56:53.581Z,96048.38
2023-02-03T13:59:31.876Z,96052.34
2023-02-03T14:02:17.119Z,96048.97
2023-02-03T14:04:46.719Z,96034.44
2023-02-03T14:10:35.170Z,96038.16
2023-02-03T14:13:03.778Z,96026.09
2023-02-03T14:15:32.105Z,96018.53
2023-02-03T14:18:17.206Z,96032.38
2023-02-03T14:20:44.839Z,96007.16
2023-02-03T14:23:13.826Z,96016.34
2023-02-03T14:25:40.486Z,96015.66
2023-02-03T14:31:28.842Z,96009.50
2023-02-03T14:33:59.529Z,96007.41
2023-02-03T14:36:29.959Z,96009.50
2023-02-03T14:38:59.395Z,96001.84
2023-02-03T14:41:27.754Z,96000.19
2023-02-03T14:44:32.855Z,95999.16
2023-02-03T14:47:03.557Z,96001.59
2023-02-03T14:49:48.926Z,96001.25
2023-02-03T14:52:38.421Z,95983.34
2023-02-03T14:55:23.602Z,95993.56
2023-02-03T14:57:51.871Z,95991.69
2023-02-03T15:00:25.840Z,95983.81
2023-02-03T15:03:10.504Z,95979.25
2023-02-03T15:05:43.756Z,95974.94
2023-02-03T15:08:29.217Z,95965.91
2023-02-03T15:10:55.704Z,95951.09
2023-02-03T15:13:25.954Z,95956.56
2023-02-03T15:15:56.048Z,95950.75
2023-02-03T15:18:26.675Z,95954.25
2023-02-03T15:20:54.027Z,95950.75
2023-02-03T15:23:24.432Z,95960.31
2023-02-03T15:26:11.738Z,95956.69
2023-02-03T15:28:38.189Z,95951.09
2023-02-03T15:31:14.092Z,95945.44
2023-02-03T15:33:42.627Z,95941.69
2023-02-03T15:36:10.361Z,95940.06
2023-02-03T15:38:38.597Z,95929.84
2023-02-03T15:41:05.078Z,95936.34
2023-02-03T15:43:32.509Z,95934.72
2023-02-03T15:46:02.147Z,95937.28
2023-02-03T15:48:34.398Z,95940.66
2023-02-03T15:51:12.177Z,95935.66
2023-02-03T15:53:58.922Z,95929.25
2023-02-03T15:56:30.562Z,95929.34
2023-02-03T15:58:58.890Z,95941.13
2023-02-03T16:01:26.750Z,95958.78
2023-02-03T16:03:53.843Z,95978.22
2023-02-03T16:06:37.041Z,95998.91
2023-02-03T16:09:03.744Z,96037.06
2023-02-03T16:11:34.172Z,96068.00
2023-02-03T16:14:01.489Z,96077.41
2023-02-03T16:16:29.135Z,96068.25
2023-02-03T16:19:00.059Z,96047.88
2023-02-03T16:21:36.449Z,96039.97
2023-02-03T16:24:03.870Z,95999.63
2023-02-03T16:26:31.150Z,95965.88
2023-02-03T16:29:21.745Z,95975.19
2023-02-03T16:32:06.984Z,95962.25
2023-02-03T16:34:52.163Z,95991.09
2023-02-03T16:37:44.386Z,95984.13
2023-02-03T16:40:29.590Z,95999.50
2023-02-03T16:43:14.680Z,96012.50
2023-02-03T16:45:59.861Z,96015.19
2023-02-03T16:48:45.121Z,96001.00
2023-02-03T16:51:13.341Z,96007.19
2023-02-03T16:53:40.473Z,96039.63
2023-02-03T16:56:07.038Z,96023.47
2023-02-03T16:58:33.546Z,96026.03
2023-02-03T17:01:00.683Z,96019.38
2023-02-03T17:03:27.554Z,96034.53
2023-02-03T17:05:54.261Z,96030.91
2023-02-03T17:08:21.749Z,96013.22
2023-02-03T17:10:48.607Z,95998.22
2023-02-03T17:13:15.289Z,96007.75
2023-02-03T17:15:48.567Z,96017.28
2023-02-03T17:18:15.257Z,96011.00
2023-02-03T17:20:42.405Z,96025.91
2023-02-03T17:23:09.073Z,96018.91
2023-02-03T17:25:38.539Z,96023.91
2023-02-03T17:28:05.762Z,96014.47
2023-02-03T17:30:35.592Z,96018.91
2023-02-03T17:33:02.875Z,96012.03
2023-02-03T17:35:36.594Z,96022.16
2023-02-03T17:38:03.057Z,96010.28
2023-02-03T17:54:12.278Z,96014.72
2023-02-03T17:56:38.832Z,96022.53
2023-02-03T17:59:05.522Z,96031.03
2023-02-03T18:01:32.194Z,96031.84
2023-02-03T18:03:59.634Z,96031.03
2023-02-03T18:06:26.881Z,96054.06
2023-02-03T18:08:53.648Z,96059.06
2023-02-03T18:11:20.226Z,96057.44
2023-02-03T18:13:47.465Z,96068.13
2023-02-03T18:16:18.011Z,96062.69
2023-02-03T18:18:44.648Z,96071.84
2023-02-03T18:21:11.765Z,96067.78
2023-02-03T18:23:38.335Z,96076.72
2023-02-03T18:26:05.442Z,96073.00
2023-02-03T18:28:32.061Z,96083.03
2023-02-03T18:31:09.023Z,96083.84
2023-02-03T18:33:35.673Z,96097.00
2023-02-03T18:36:02.219Z,96097.47
2023-02-03T18:38:30.568Z,96100.94
2023-02-03T18:40:57.087Z,96102.44
2023-02-03T18:43:23.603Z,96094.31
2023-02-03T18:45:50.173Z,96105.59
2023-02-03T18:48:16.719Z,96104.88
2023-02-03T18:50:43.474Z,96116.88
2023-02-03T18:53:11.269Z,96113.41
2023-02-03T18:55:43.866Z,96091.28
2023-02-03T18:58:10.530Z,96084.06
2023-02-03T19:00:37.140Z,96088.28
2023-02-03T19:03:03.606Z,96088.63
2023-02-03T19:05:30.129Z,96086.75
2023-02-03T19:07:56.676Z,96089.63
2023-02-03T19:10:23.200Z,96082.41
2023-02-03T19:12:49.752Z,96090.09
2023-02-03T19:15:16.344Z,96084.78
2023-02-03T19:17:42.805Z,96092.56
2023-02-03T19:20:09.569Z,96088.59
2023-02-03T19:22:36.060Z,96084.16
2023-02-03T19:25:02.496Z,96085.47
2023-02-03T19:27:28.986Z,96088.94
2023-02-03T19:29:55.500Z,96085.09
2023-02-03T19:32:22.150Z,96078.56
2023-02-03T19:34:48.654Z,96097.44
2023-02-03T19:37:15.249Z,96095.69
2023-02-03T19:39:41.794Z,96082.88
2023-02-03T19:42:08.313Z,96087.06
2023-02-03T19:44:37.077Z,96085.91
2023-02-03T19:47:03.857Z,96086.63
2023-02-03T19:49:30.345Z,96094.06
2023-02-03T19:51:57.033Z,96098.72
2023-02-03T19:54:23.629Z,96099.66
2023-02-03T19:56:50.160Z,96095.47
2023-02-03T19:59:16.668Z,96099.78
2023-02-03T20:01:43.176Z,96102.22
2023-02-03T20:04:09.786Z,96104.91
2023-02-03T20:06:36.322Z,96096.28
2023-02-03T20:09:04.256Z,96094.75
2023-02-03T20:11:30.764Z,96098.25
2023-02-03T20:13:57.264Z,96096.50
2023-02-03T20:16:24.092Z,96089.09
2023-02-03T20:18:52.957Z,96091.97
2023-02-03T20:21:19.475Z,96097.78
2023-02-03T20:23:45.991Z,96093.94
2023-02-03T20:26:14.181Z,96100.47
2023-02-03T20:28:40.801Z,96101.41
2023-02-03T20:31:07.453Z,96097.31
2023-02-03T20:33:34.045Z,96086.03
2023-02-03T20:36:00.663Z,96086.63
2023-02-03T20:38:27.313Z,96090.91
2023-02-03T20:40:53.806Z,96092.44
2023-02-03T20:43:21.040Z,96087.31
2023-02-03T20:45:49.612Z,96081.16
2023-02-03T20:48:16.461Z,96084.31
2023-02-03T20:50:49.570Z,96081.50
2023-02-03T20:53:17.416Z,96083.50
2023-02-03T20:55:44.054Z,96072.78
2023-02-03T20:58:12.818Z,96072.31
2023-02-03T21:00:39.451Z,96073.59
2023-02-03T21:03:24.650Z,96074.66
2023-02-03T21:05:51.206Z,96064.50
2023-02-03T21:08:18.427Z,96064.16
2023-02-03T21:10:45.193Z,96075.34
2023-02-03T21:13:29.969Z,96077.31
2023-02-03T21:15:57.266Z,96074.28
2023-02-03T21:18:39.442Z,96072.56
2023-02-03T21:21:11.523Z,96070.56
2023-02-03T21:23:39.997Z,96072.91
2023-02-03T21:26:19.814Z,96067.88
2023-02-03T21:28:56.293Z,96068.72
2023-02-03T21:31:24.170Z,96073.94
2023-02-03T21:33:51.292Z,96071.25
2023-02-03T21:36:18.465Z,96080.47
2023-02-03T21:38:45.834Z,96083.59
2023-02-03T21:41:16.536Z,96075.69
2023-02-03T21:43:43.570Z,96084.88
2023-02-03T21:46:12.449Z,96081.63
2023-02-03T21:48:39.880Z,96091.19
2023-02-03T21:51:13.357Z,96085.00
2023-02-03T21:53:39.879Z,96083.38
2023-02-03T21:56:16.966Z,96091.88
2023-02-03T21:58:44.165Z,96089.19
2023-02-03T22:01:16.426Z,96084.88
2023-02-03T22:03:45.094Z,96085.00
2023-02-03T22:06:11.559Z,96083.38
2023-02-03T22:08:38.414Z,96086.16
2023-02-03T22:11:05.114Z,96085.81
2023-02-03T22:13:31.763Z,96086.88
2023-02-03T22:15:58.247Z,96085.25
2023-02-03T22:18:24.929Z,96080.94
2023-02-03T22:20:51.837Z,96079.53
2023-02-03T22:23:18.362Z,96077.66
2023-02-03T22:25:44.920Z,96086.75
2023-02-03T22:28:11.433Z,96086.88
2023-02-03T22:30:38.012Z,96095.13
2023-02-03T22:33:04.633Z,96086.88
2023-02-03T22:35:31.383Z,96092.81
2023-02-03T22:37:58.013Z,96095.25
2023-02-03T22:40:24.567Z,96101.78
2023-02-03T22:42:51.244Z,96104.09
2023-02-03T22:45:17.963Z,96094.78
2023-02-03T22:47:44.570Z,96095.97
2023-02-03T22:50:11.549Z,96091.66
2023-02-03T22:52:38.103Z,96096.63
2023-02-03T22:55:05.113Z,96089.66
2023-02-03T22:57:31.610Z,96090.84
2023-02-03T22:59:58.062Z,96088.84
2023-02-03T23:02:24.577Z,96084.06
2023-02-03T23:04:51.045Z,96080.47
2023-02-03T23:07:17.556Z,96084.44
2023-02-03T23:09:44.047Z,96087.34
2023-02-03T23:12:10.569Z,96077.19
2023-02-03T23:14:37.062Z,96077.56
2023-02-03T23:17:03.599Z,95965.50
2023-02-03T23:19:30.160Z,96083.03
2023-02-03T23:21:56.663Z,96083.03
2023-02-03T23:24:23.203Z,96079.75
2023-02-03T23:26:49.698Z,96071.50
2023-02-03T23:29:16.227Z,96060.47
2023-02-03T23:31:42.965Z,96066.59
2023-02-03T23:34:28.296Z,96068.94
2023-02-03T23:36:54.796Z,96061.63
2023-02-03T23:39:21.999Z,96057.19
2023-02-03T23:41:48.468Z,96071.59
2023-02-03T23:44:15.010Z,96076.63
2023-02-03T23:46:41.546Z,96067.75
2023-02-03T23:49:08.044Z,96068.00
2023-02-03T23:51:34.535Z,96064.06
2023-02-03T23:54:01.015Z,96060.69
2023-02-03T23:56:27.472Z,96061.28
2023-02-03T23:58:53.946Z,96071.72
